createdAt,value
2019-01-05T00:02:38.295Z,100504.00
2019-01-05T00:05:28.794Z,100492.20
2019-01-05T00:08:16.738Z,100490.44
2019-01-05T00:11:11.865Z,100489.34
2019-01-05T00:14:13.106Z,100489.34
2019-01-05T00:16:55.155Z,100494.90
2019-01-05T00:19:57.001Z,100492.61
2019-01-05T00:22:52.921Z,100489.94
2019-01-05T00:25:42.360Z,100487.77
2019-01-05T00:28:43.034Z,100491.13
2019-01-05T00:31:31.008Z,100491.63
2019-01-05T00:34:32.578Z,100491.63
2019-01-05T00:37:29.511Z,100487.13
2019-01-05T00:40:20.540Z,100489.29
2019-01-05T00:43:08.898Z,100492.82
2019-01-05T00:46:17.824Z,100492.14
2019-01-05T00:49:14.963Z,100496.17
2019-01-05T00:51:57.567Z,100496.27
2019-01-05T00:54:50.604Z,100481.45
2019-01-05T00:57:47.304Z,100479.29
2019-01-05T01:00:35.037Z,100477.50
2019-01-05T01:03:30.462Z,100480.50
2019-01-05T01:06:38.022Z,100471.16
2019-01-05T01:09:25.866Z,100468.00
2019-01-05T01:12:18.298Z,100467.20
2019-01-05T01:15:06.374Z,100462.73
2019-01-05T01:18:10.937Z,100461.91
2019-01-05T01:21:00.506Z,100461.91
2019-01-05T01:23:48.569Z,100457.75
2019-01-05T01:26:36.884Z,100457.75
2019-01-05T01:29:41.781Z,100454.23
2019-01-05T01:32:31.111Z,100444.54
2019-01-05T01:35:20.557Z,100439.52
2019-01-05T01:38:48.677Z,100449.40
2019-01-05T01:41:50.259Z,100449.40
2019-01-05T01:44:40.285Z,100442.38
2019-01-05T01:47:45.988Z,100433.52
2019-01-05T01:50:36.099Z,100433.52
2019-01-05T01:53:43.293Z,100428.20
2019-01-05T01:56:48.918Z,100409.83
2019-01-05T02:00:06.744Z,100409.83
2019-01-05T02:02:53.924Z,100409.84
2019-01-05T02:05:45.060Z,100261.09
2019-01-05T02:08:40.941Z,100261.09
2019-01-05T02:11:30.776Z,100381.76
2019-01-05T02:14:29.887Z,100392.97
2019-01-05T02:17:33.854Z,100383.11
2019-01-05T02:20:57.947Z,100388.45
2019-01-05T02:24:35.216Z,100250.42
2019-01-05T02:28:19.814Z,100250.42
2019-01-05T02:31:51.608Z,100380.61
2019-01-05T02:35:26.730Z,100380.61
2019-01-05T02:38:56.700Z,100379.43
2019-01-05T02:42:08.125Z,100362.91
2019-01-05T02:45:59.247Z,100360.22
2019-01-05T02:49:17.520Z,100363.56
2019-01-05T02:52:54.142Z,100352.88
2019-01-05T02:56:29.319Z,100352.88
2019-01-05T02:59:58.520Z,100344.50
2019-01-05T03:03:12.670Z,100336.16
2019-01-05T03:07:02.010Z,100332.00
2019-01-05T03:10:58.370Z,100329.08
2019-01-05T03:14:41.033Z,100329.08
2019-01-05T03:18:05.103Z,100324.56
2019-01-05T03:21:44.813Z,100321.45
2019-01-05T03:25:41.222Z,100326.41
2019-01-05T03:29:00.423Z,100324.77
2019-01-05T03:32:50.188Z,100323.01
2019-01-05T03:36:04.130Z,100332.66
2019-01-05T03:39:38.337Z,100328.63
2019-01-05T03:42:50.166Z,100330.55
2019-01-05T03:46:06.383Z,100320.21
2019-01-05T03:49:30.516Z,100325.81
2019-01-05T03:53:04.921Z,100308.95
2019-01-05T03:56:37.770Z,100303.31
2019-01-05T04:00:21.255Z,100304.83
2019-01-05T04:04:29.962Z,100297.48
2019-01-05T04:07:58.195Z,100304.83
2019-01-05T04:11:25.054Z,100303.61
2019-01-05T04:14:54.535Z,100302.96
2019-01-05T04:18:24.378Z,100300.62
2019-01-05T04:22:14.805Z,100294.45
2019-01-05T04:25:31.427Z,100291.67
2019-01-05T04:29:28.458Z,100283.73
2019-01-05T04:33:15.600Z,100280.77
2019-01-05T04:36:52.090Z,100278.40
2019-01-05T04:40:24.522Z,100272.74
2019-01-05T04:44:15.469Z,100267.34
2019-01-05T04:47:32.900Z,100260.30
2019-01-05T04:51:11.817Z,100262.34
2019-01-05T04:55:08.719Z,100267.17
2019-01-05T04:58:37.671Z,100266.70
2019-01-05T05:02:27.161Z,100269.39
2019-01-05T05:05:49.535Z,100270.91
2019-01-05T05:09:25.800Z,100274.42
2019-01-05T05:12:52.409Z,100282.13
2019-01-05T05:16:25.634Z,100286.81
2019-01-05T05:19:50.896Z,100277.83
2019-01-05T05:23:13.729Z,100287.34
2019-01-05T05:26:57.350Z,100283.19
2019-01-05T05:30:32.240Z,100292.14
2019-01-05T05:33:56.350Z,100288.47
2019-01-05T05:37:17.783Z,100273.00
2019-01-05T05:41:01.340Z,100272.14
2019-01-05T05:44:41.051Z,100270.81
2019-01-05T05:48:47.088Z,100260.80
2019-01-05T05:52:13.886Z,100254.78
2019-01-05T05:55:37.751Z,100260.47
2019-01-05T05:59:05.363Z,100261.30
2019-01-05T06:02:41.959Z,100256.77
2019-01-05T06:06:16.130Z,100262.37
2019-01-05T06:09:40.999Z,100260.47
2019-01-05T06:12:52.856Z,100258.16
2019-01-05T06:16:21.715Z,100256.95
2019-01-05T06:19:56.038Z,100255.55
2019-01-05T06:23:43.497Z,100257.69
2019-01-05T06:27:21.256Z,100251.67
2019-01-05T06:30:49.864Z,100261.71
2019-01-05T06:34:14.936Z,100266.28
2019-01-05T06:37:55.640Z,100267.08
2019-01-05T06:41:42.911Z,100263.80
2019-01-05T06:45:36.472Z,100268.33
2019-01-05T06:49:03.474Z,100269.66
2019-01-05T06:52:42.483Z,100278.45
2019-01-05T06:56:06.078Z,100277.00
2019-01-05T06:59:48.775Z,100281.63
2019-01-05T07:03:21.466Z,100278.72
2019-01-05T07:07:00.517Z,100281.72
2019-01-05T07:10:44.981Z,100278.37
2019-01-05T07:14:23.331Z,100275.77
2019-01-05T07:18:13.903Z,100270.84
2019-01-05T07:21:42.208Z,100275.50
2019-01-05T07:25:15.295Z,100269.89
2019-01-05T07:28:34.386Z,100274.95
2019-01-05T07:32:22.493Z,100267.28
2019-01-05T07:36:11.529Z,100270.21
2019-01-05T07:39:54.711Z,100264.49
2019-01-05T07:43:26.321Z,100265.77
2019-01-05T07:47:01.726Z,100262.41
2019-01-05T07:50:24.570Z,100262.05
2019-01-05T07:53:42.627Z,100255.10
2019-01-05T07:57:14.627Z,100249.45
2019-01-05T08:00:41.987Z,100237.99
2019-01-05T08:04:13.131Z,100237.99
2019-01-05T08:07:45.677Z,100233.97
2019-01-05T08:11:26.315Z,100231.12
2019-01-05T08:15:19.943Z,100226.45
2019-01-05T08:18:52.164Z,100221.68
2019-01-05T08:22:33.503Z,100212.67
2019-01-05T08:26:15.180Z,100212.67
2019-01-05T08:29:43.479Z,100210.91
2019-01-05T08:33:26.298Z,100205.58
2019-01-05T08:37:08.797Z,100195.92
2019-01-05T08:40:51.140Z,100192.23
2019-01-05T08:44:37.612Z,100195.08
2019-01-05T08:48:01.525Z,100185.38
2019-01-05T08:51:37.466Z,100185.38
2019-01-05T08:55:04.448Z,100187.54
2019-01-05T08:58:53.717Z,100183.08
2019-01-05T09:02:23.187Z,100166.05
2019-01-05T09:05:59.901Z,100166.05
2019-01-05T09:09:20.364Z,100157.02
2019-01-05T09:12:48.759Z,100150.34
2019-01-05T09:16:47.375Z,100155.17
2019-01-05T09:20:17.336Z,100155.17
2019-01-05T09:24:03.794Z,100127.24
2019-01-05T09:27:41.864Z,100127.24
2019-01-05T09:31:19.636Z,100106.89
2019-01-05T09:34:51.040Z,100105.52
2019-01-05T09:38:16.309Z,100096.33
2019-01-05T09:41:43.333Z,100086.26
2019-01-05T09:45:21.099Z,100086.26
2019-01-05T09:49:02.466Z,100081.39
2019-01-05T09:52:34.535Z,100065.91
2019-01-05T09:56:20.605Z,100057.52
2019-01-05T09:59:47.317Z,100052.02
2019-01-05T10:03:17.314Z,100046.08
2019-01-05T10:06:50.219Z,100041.80
2019-01-05T10:10:27.225Z,100027.45
2019-01-05T10:14:06.576Z,100025.44
2019-01-05T10:17:47.185Z,100015.09
2019-01-05T10:21:19.109Z,100005.44
2019-01-05T10:24:58.517Z,100004.22
2019-01-05T10:28:34.416Z,100001.76
2019-01-05T10:32:37.500Z,99993.23
2019-01-05T10:36:31.733Z,99988.97
2019-01-05T10:39:54.902Z,99977.05
2019-01-05T10:43:14.514Z,99975.30
2019-01-05T10:46:45.392Z,99954.08
2019-01-05T10:50:19.611Z,99957.50
2019-01-05T10:53:47.420Z,99957.50
2019-01-05T10:57:11.584Z,99950.02
2019-01-05T11:01:09.284Z,99947.42
2019-01-05T11:04:52.251Z,99935.17
2019-01-05T11:08:29.582Z,99926.47
2019-01-05T11:12:19.363Z,99919.70
2019-01-05T11:15:43.647Z,99912.92
2019-01-05T11:19:31.410Z,99832.69
2019-01-05T11:23:06.681Z,99905.29
2019-01-05T11:26:46.742Z,99895.36
2019-01-05T11:30:17.040Z,99898.19
2019-01-05T11:34:14.175Z,99861.16
2019-01-05T11:37:55.294Z,99884.47
2019-01-05T11:41:39.795Z,99875.28
2019-01-05T11:45:02.801Z,99869.73
2019-01-05T11:48:23.589Z,99872.12
2019-01-05T11:51:59.622Z,99866.59
2019-01-05T11:55:24.149Z,99867.61
2019-01-05T11:58:54.120Z,99860.58
2019-01-05T12:02:19.731Z,99862.36
2019-01-05T12:05:57.266Z,99859.85
2019-01-05T12:09:45.186Z,99852.60
2019-01-05T12:13:21.375Z,99842.84
2019-01-05T12:16:51.778Z,99849.50
2019-01-05T12:20:40.111Z,99844.73
2019-01-05T12:24:42.939Z,99838.05
2019-01-05T12:28:10.337Z,99832.80
2019-01-05T12:32:07.959Z,99823.32
2019-01-05T12:35:31.816Z,99817.81
2019-01-05T12:39:01.719Z,99811.31
2019-01-05T12:42:37.221Z,99813.27
2019-01-05T12:46:18.818Z,99805.72
2019-01-05T12:49:42.928Z,99806.97
2019-01-05T12:53:25.508Z,99798.28
2019-01-05T12:56:55.420Z,99800.02
2019-01-05T13:00:29.023Z,99792.61
2019-01-05T13:04:06.290Z,99787.00
2019-01-05T13:07:21.191Z,99791.55
2019-01-05T13:10:50.163Z,99787.17
2019-01-05T13:14:19.951Z,99781.35
2019-01-05T13:17:44.738Z,99787.73
2019-01-05T13:21:23.312Z,99784.55
2019-01-05T13:25:09.063Z,99787.73
2019-01-05T13:28:41.311Z,99791.19
2019-01-05T13:32:28.870Z,99779.75
2019-01-05T13:36:03.213Z,99782.52
2019-01-05T13:39:33.206Z,99775.05
2019-01-05T13:43:02.719Z,99779.80
2019-01-05T13:46:40.303Z,99780.98
2019-01-05T13:50:04.833Z,99790.16
2019-01-05T13:53:14.606Z,99783.52
2019-01-05T13:56:11.336Z,99764.77
2019-01-05T13:59:15.506Z,99775.35
2019-01-05T14:02:10.637Z,99771.29
2019-01-05T14:04:59.837Z,99769.08
2019-01-05T14:08:06.791Z,99765.42
2019-01-05T14:10:54.666Z,99758.24
2019-01-05T14:13:42.352Z,99764.73
2019-01-05T14:16:30.251Z,99757.73
2019-01-05T14:19:34.676Z,99758.68
2019-01-05T14:22:22.479Z,99755.08
2019-01-05T14:25:10.209Z,99755.03
2019-01-05T14:27:58.124Z,99756.89
2019-01-05T14:30:47.382Z,99747.75
2019-01-05T14:33:43.733Z,99745.71
2019-01-05T14:36:36.076Z,99744.38
2019-01-05T14:39:25.496Z,99742.16
2019-01-05T14:42:14.742Z,99735.33
2019-01-05T14:45:02.407Z,99734.06
2019-01-05T14:47:50.299Z,99727.16
2019-01-05T14:50:57.433Z,99731.13
2019-01-05T14:53:49.430Z,99722.45
2019-01-05T14:56:38.598Z,99716.16
2019-01-05T14:59:27.834Z,99723.02
2019-01-05T15:02:19.935Z,99727.98
2019-01-05T15:05:09.418Z,99727.98
2019-01-05T15:08:07.687Z,99723.92
2019-01-05T15:11:11.823Z,99726.16
2019-01-05T15:14:15.977Z,99716.33
2019-01-05T15:17:08.143Z,99720.98
2019-01-05T15:19:55.861Z,99715.69
2019-01-05T15:22:43.747Z,99715.69
2019-01-05T15:25:43.602Z,99720.00
2019-01-05T15:28:31.359Z,99727.08
2019-01-05T15:31:20.149Z,99726.48
2019-01-05T15:34:15.404Z,99730.80
2019-01-05T15:37:12.014Z,99727.82
2019-01-05T15:40:11.129Z,99727.82
2019-01-05T15:43:15.589Z,99726.22
2019-01-05T15:46:19.525Z,99726.40
2019-01-05T15:49:07.104Z,99720.66
2019-01-05T15:51:54.816Z,99723.16
2019-01-05T15:54:55.879Z,99723.16
2019-01-05T15:57:50.974Z,99723.38
2019-01-05T16:00:55.116Z,99740.64
2019-01-05T16:03:42.854Z,99732.01
2019-01-05T16:06:34.976Z,99732.01
2019-01-05T16:09:41.196Z,99729.55
2019-01-05T16:12:28.846Z,99746.80
2019-01-05T16:15:14.190Z,99746.80
2019-01-05T16:18:02.160Z,99740.98
2019-01-05T16:20:50.010Z,99740.39
2019-01-05T16:23:39.327Z,99740.39
2019-01-05T16:26:26.997Z,99734.47
2019-01-05T16:29:14.667Z,99734.47
2019-01-05T16:32:22.365Z,99724.53
2019-01-05T16:35:11.721Z,99724.53
2019-01-05T16:38:10.567Z,99731.94
2019-01-05T16:40:59.759Z,99725.45
2019-01-05T16:43:52.048Z,99733.87
2019-01-05T16:46:41.248Z,99732.47
2019-01-05T16:49:29.082Z,99735.48
2019-01-05T16:52:18.297Z,99736.05
2019-01-05T16:55:10.608Z,99736.59
2019-01-05T16:57:58.467Z,99730.62
2019-01-05T17:00:56.118Z,99735.84
2019-01-05T17:03:47.436Z,99734.55
2019-01-05T17:06:39.440Z,99738.75
2019-01-05T17:09:34.886Z,99733.11
2019-01-05T17:12:19.295Z,99736.63
2019-01-05T17:15:03.634Z,99737.84
2019-01-05T17:17:51.606Z,99739.20
2019-01-05T17:20:39.498Z,99736.39
2019-01-05T17:23:37.579Z,99736.74
2019-01-05T17:26:26.806Z,99735.11
2019-01-05T17:29:34.155Z,99738.62
2019-01-05T17:32:38.543Z,99731.14
2019-01-05T17:35:33.721Z,99735.98
2019-01-05T17:38:21.613Z,99733.16
2019-01-05T17:41:10.809Z,99724.19
2019-01-05T17:43:58.689Z,99725.03
2019-01-05T17:46:53.842Z,99724.03
2019-01-05T17:49:41.554Z,99729.73
2019-01-05T17:52:27.307Z,99718.76
2019-01-05T17:55:14.871Z,99714.94
2019-01-05T17:58:16.318Z,99716.46
2019-01-05T18:01:03.981Z,99715.32
2019-01-05T18:03:58.738Z,99706.16
2019-01-05T18:06:48.035Z,99697.49
2019-01-05T18:09:35.622Z,99705.50
2019-01-05T18:12:24.901Z,99697.51
2019-01-05T18:15:14.122Z,99693.86
2019-01-05T18:18:06.267Z,99692.03
2019-01-05T18:21:04.534Z,99694.86
2019-01-05T18:23:47.121Z,99689.02
2019-01-05T18:26:34.910Z,99693.21
2019-01-05T18:29:22.834Z,99692.55
2019-01-05T18:32:20.887Z,99690.88
2019-01-05T18:35:08.112Z,99683.23
2019-01-05T18:37:57.364Z,99682.55
2019-01-05T18:40:44.987Z,99678.91
2019-01-05T18:43:37.337Z,99681.06
2019-01-05T18:46:41.803Z,99678.72
2019-01-05T18:49:29.453Z,99680.53
2019-01-05T18:52:25.183Z,99679.22
2019-01-05T18:55:13.515Z,99674.57
2019-01-05T18:58:05.800Z,99671.91
2019-01-05T19:00:53.735Z,99669.75
2019-01-05T19:03:41.424Z,99660.75
2019-01-05T19:06:39.823Z,99667.91
2019-01-05T19:09:29.123Z,99665.75
2019-01-05T19:12:27.093Z,99668.06
2019-01-05T19:15:14.788Z,99670.26
2019-01-05T19:18:09.976Z,99674.06
2019-01-05T19:21:04.970Z,99674.73
2019-01-05T19:24:03.412Z,99669.59
2019-01-05T19:26:47.516Z,99669.91
2019-01-05T19:29:35.180Z,99672.25
2019-01-05T19:32:24.937Z,99669.59
2019-01-05T19:35:12.544Z,99677.22
2019-01-05T19:38:04.801Z,99671.58
2019-01-05T19:40:52.762Z,99668.56
2019-01-05T19:43:50.955Z,99663.90
2019-01-05T19:46:55.110Z,99667.06
2019-01-05T19:49:42.896Z,99664.09
2019-01-05T19:52:30.423Z,99663.06
2019-01-05T19:55:17.990Z,99662.09
2019-01-05T19:58:05.643Z,99663.89
2019-01-05T20:00:46.347Z,99666.56
2019-01-05T20:03:34.224Z,99659.56
2019-01-05T20:06:28.752Z,99664.57
2019-01-05T20:09:20.704Z,99656.73
2019-01-05T20:12:08.419Z,99654.55
2019-01-05T20:15:03.607Z,99656.53
2019-01-05T20:18:05.656Z,99651.52
2019-01-05T20:20:54.864Z,99650.03
2019-01-05T20:23:47.148Z,99643.88
2019-01-05T20:26:28.488Z,99643.14
2019-01-05T20:29:16.505Z,99651.86
2019-01-05T20:32:04.420Z,99651.81
2019-01-05T20:34:59.513Z,99642.81
2019-01-05T20:37:47.104Z,99641.83
2019-01-05T20:40:48.520Z,99640.53
2019-01-05T20:43:37.727Z,99632.22
2019-01-05T20:46:32.976Z,99631.23
2019-01-05T20:49:20.955Z,99627.92
2019-01-05T20:52:19.207Z,99627.56
2019-01-05T20:55:06.857Z,99627.87
2019-01-05T20:57:53.830Z,99631.56
2019-01-05T21:00:46.071Z,99634.52
2019-01-05T21:03:44.207Z,99630.54
2019-01-05T21:06:39.583Z,99620.42
2019-01-05T21:09:29.184Z,99621.42
2019-01-05T21:12:31.899Z,99613.59
2019-01-05T21:15:27.100Z,99616.92
2019-01-05T21:18:17.031Z,99608.44
2019-01-05T21:21:04.750Z,99609.12
2019-01-05T21:24:16.096Z,99601.11
2019-01-05T21:27:03.936Z,99597.92
2019-01-05T21:30:28.939Z,99592.13
2019-01-05T21:33:27.521Z,99584.97
2019-01-05T21:36:46.970Z,99585.23
2019-01-05T21:39:38.278Z,99582.77
2019-01-05T21:42:26.143Z,99573.00
2019-01-05T21:45:29.026Z,99575.95
2019-01-05T21:48:24.026Z,99568.32
2019-01-05T21:51:16.085Z,99565.97
2019-01-05T21:54:05.355Z,99559.98
2019-01-05T21:56:54.593Z,99550.17
2019-01-05T21:59:42.269Z,99551.36
2019-01-05T22:02:29.916Z,99538.84
2019-01-05T22:05:16.030Z,99532.23
2019-01-05T22:08:05.200Z,99525.89
2019-01-05T22:10:52.804Z,99536.53
2019-01-05T22:13:45.432Z,99535.37
2019-01-05T22:16:52.648Z,99515.55
2019-01-05T22:19:50.820Z,99522.74
2019-01-05T22:22:38.231Z,99514.41
2019-01-05T22:25:39.338Z,99516.11
2019-01-05T22:28:27.774Z,99507.47
2019-01-05T22:31:15.753Z,99493.30
2019-01-05T22:34:03.442Z,99357.86
2019-01-05T22:37:11.011Z,99494.82
2019-01-05T22:39:58.957Z,99489.03
2019-01-05T22:42:48.135Z,99486.00
2019-01-05T22:45:40.461Z,99481.52
2019-01-05T22:48:29.676Z,99467.36
2019-01-05T22:51:17.547Z,99463.89
2019-01-05T22:54:15.926Z,99462.51
2019-01-05T22:57:07.969Z,99465.02
2019-01-05T22:59:55.820Z,99461.88
2019-01-05T23:02:43.784Z,99451.61
2019-01-05T23:05:32.996Z,99455.91
2019-01-05T23:08:28.088Z,99444.80
2019-01-05T23:11:17.292Z,99442.77
2019-01-05T23:14:05.223Z,99443.95
2019-01-05T23:16:53.124Z,99430.69
2019-01-05T23:19:45.336Z,99431.82
2019-01-05T23:22:44.841Z,99428.68
2019-01-05T23:25:34.045Z,99437.20
2019-01-05T23:28:23.255Z,99434.19
2019-01-05T23:31:27.429Z,99429.09
2019-01-05T23:34:09.159Z,99424.71
2019-01-05T23:37:16.630Z,99429.53
2019-01-05T23:40:10.454Z,99434.81
2019-01-05T23:42:58.305Z,99428.52
2019-01-05T23:45:51.432Z,99424.56
2019-01-05T23:48:49.594Z,99420.89
2019-01-05T23:51:38.828Z,99414.09
2019-01-05T23:54:26.898Z,99425.06
2019-01-05T23:57:30.499Z,99428.58
